Terminal Aerodrome Forecast
Issued by NWS Shreveport, LA

Home | Current Version | Previous Version | Text Only | Print | Product List | Glossary On
Versions: 1 2 3 4 5 6 7 8 9 10 11 12 13
000
FTUS44 KSHV 202338
TAFLFK
TAF
KLFK 202338Z 2100/2124 11010KT P6SM FEW250
     FM210800 12006KT P6SM FEW030 SCT150
     FM211500 13010KT P6SM BKN030
     FM211800 14012G20KT P6SM VCSH SCT015 OVC030
     FM212300 14011KT 5SM TSRA BR SCT010 OVC020CB=

USA.gov is the U.S. government's official web portal to all federal, state and local government web resources and services.